Time;durP1;ratioP1;P1;durP2;ratioP2;P2;SDS_P1;SDS_P2;PMS_P1;PMS_P2;Temp;Humidity;BMP_temperature;BMP_pressure;BME280_temperature;BME280_humidity;BME280_pressure;Samples;Min_cycle;Max_cycle;Signal;HPM_P1;HPM_P2
2022/03/17 00:00:28;;;;;;;17.57;14.93;;;9.70;66.40;9.90;97041.00;;;;5102198;28;20233;-85
2022/03/17 00:02:55;;;;;;;19.17;15.50;;;9.70;66.40;9.90;97043.00;;;;5102495;28;20675;-85
2022/03/17 00:05:22;;;;;;;18.20;15.47;;;9.70;66.50;9.90;97042.00;;;;5102223;28;20289;-85
2022/03/17 00:07:49;;;;;;;19.57;15.67;;;9.70;66.60;9.90;97042.00;;;;5098311;28;20294;-85
2022/03/17 00:10:18;;;;;;;20.43;16.30;;;9.70;66.70;9.90;97044.00;;;;5102016;28;20203;-85
2022/03/17 00:12:47;;;;;;;17.73;14.73;;;9.70;66.80;9.90;97039.00;;;;5102202;28;20287;-83
2022/03/17 00:15:15;;;;;;;19.80;15.53;;;9.60;66.80;9.90;97041.00;;;;5101539;28;20226;-85
2022/03/17 00:17:43;;;;;;;18.57;15.37;;;9.70;66.90;9.90;97033.00;;;;5101655;28;20231;-85
2022/03/17 00:20:12;;;;;;;18.53;15.83;;;9.70;66.80;9.90;97033.00;;;;5102403;28;20218;-85
2022/03/17 00:22:40;;;;;;;20.53;16.80;;;9.70;67.60;9.90;97026.00;;;;5102019;28;20254;-84
2022/03/17 00:25:10;;;;;;;18.37;15.30;;;10.00;67.20;9.90;97040.00;;;;5101660;28;20305;-83
2022/03/17 00:27:39;;;;;;;18.50;15.80;;;9.70;67.10;9.90;97038.00;;;;5101799;28;20242;-85
2022/03/17 00:30:08;;;;;;;16.77;14.13;;;9.70;67.10;9.90;97030.00;;;;5101508;28;20230;-85
2022/03/17 00:32:38;;;;;;;18.07;15.80;;;9.70;67.80;9.90;97033.00;;;;5102098;28;20294;-84
2022/03/17 00:37:51;;;;;;;17.83;14.77;;;9.70;67.10;9.90;97035.00;;;;5096457;28;20241;-85
2022/03/17 00:40:18;;;;;;;20.20;16.50;;;9.80;68.00;9.90;97026.00;;;;5080523;28;20211;-85
2022/03/17 00:42:47;;;;;;;17.70;15.40;;;9.70;67.30;9.90;97025.00;;;;5081291;28;20279;-84
2022/03/17 00:45:14;;;;;;;18.50;15.87;;;10.30;67.80;9.90;97035.00;;;;5081009;28;20284;-85
2022/03/17 00:47:42;;;;;;;21.37;17.07;;;9.60;67.30;9.90;97033.00;;;;5080614;28;20273;-85
2022/03/17 00:50:11;;;;;;;21.73;17.27;;;9.70;67.40;9.90;97034.00;;;;5081243;28;20223;-85
2022/03/17 00:52:39;;;;;;;19.70;15.93;;;9.70;67.50;9.90;97022.00;;;;5081682;28;20226;-85
2022/03/17 00:55:08;;;;;;;19.67;16.53;;;9.70;67.50;9.90;97038.00;;;;5080473;28;20247;-85
2022/03/17 00:57:37;;;;;;;19.43;15.90;;;9.70;67.50;9.90;97038.00;;;;5081035;28;20283;-85
2022/03/17 01:00:08;;;;;;;20.03;16.33;;;10.10;67.80;9.90;97037.00;;;;5081104;28;20224;-84
2022/03/17 01:02:35;;;;;;;19.40;15.97;;;9.80;67.60;10.00;97038.00;;;;5080053;28;20218;-85
2022/03/17 01:05:03;;;;;;;20.33;16.80;;;9.80;67.60;10.00;97042.00;;;;5080537;28;20248;-84
2022/03/17 01:07:31;;;;;;;21.50;18.07;;;9.80;67.60;10.00;97042.00;;;;5082357;28;20227;-83
2022/03/17 01:09:58;;;;;;;23.33;17.20;;;10.50;68.10;10.00;97039.00;;;;5102007;28;20209;-85
2022/03/17 01:12:25;;;;;;;20.93;16.63;;;9.80;67.60;10.00;97031.00;;;;5101282;28;20207;-84
2022/03/17 01:14:52;;;;;;;20.57;16.77;;;9.90;67.70;10.00;97026.00;;;;5100468;28;20231;-84
2022/03/17 01:17:21;;;;;;;22.33;17.27;;;9.80;67.60;10.00;97027.00;;;;5101409;28;20286;-85
2022/03/17 01:19:48;;;;;;;20.20;16.83;;;9.90;67.60;10.10;97028.00;;;;5100573;28;20198;-85
2022/03/17 01:22:16;;;;;;;20.73;17.20;;;10.30;67.90;10.10;97034.00;;;;5100602;28;20566;-84
2022/03/17 01:24:45;;;;;;;20.90;17.23;;;9.90;67.60;10.10;97025.00;;;;5100043;28;20579;-83
2022/03/17 01:27:12;;;;;;;22.40;17.80;;;10.00;67.60;10.10;97034.00;;;;5101176;28;20195;-85
2022/03/17 01:29:43;;;;;;;20.50;17.20;;;9.90;67.60;10.10;97023.00;;;;5082686;28;20578;-85
2022/03/17 01:32:10;;;;;;;21.97;17.27;;;9.90;67.60;10.10;97024.00;;;;5080067;28;20274;-85
2022/03/17 01:34:39;;;;;;;20.87;17.47;;;9.90;67.50;10.10;97024.00;;;;5081583;28;20219;-85
2022/03/17 01:37:06;;;;;;;24.07;18.93;;;9.90;67.50;10.10;97009.00;;;;5080580;28;20640;-85
2022/03/17 01:39:33;;;;;;;22.27;18.27;;;9.90;67.50;10.10;97010.00;;;;5098799;28;20698;-85
2022/03/17 01:42:05;;;;;;;21.80;17.53;;;9.90;67.60;10.10;97015.00;;;;5100913;28;20652;-85
2022/03/17 01:44:33;;;;;;;21.23;17.43;;;9.90;67.60;10.10;97008.00;;;;5100722;28;20671;-85
2022/03/17 01:47:28;;;;;;;20.37;17.37;;;9.90;67.60;10.10;97006.00;;;;5101851;28;20275;-85
2022/03/17 01:49:58;;;;;;;22.43;17.37;;;10.00;67.70;10.10;97005.00;;;;5098789;28;20194;-84
2022/03/17 01:52:27;;;;;;;21.57;17.43;;;10.00;67.70;10.10;97007.00;;;;5099859;28;20249;-84
2022/03/17 01:54:55;;;;;;;22.17;18.60;;;10.00;67.70;10.10;97003.00;;;;5099689;28;20211;-85
2022/03/17 01:57:23;;;;;;;21.57;18.47;;;9.90;67.70;10.10;97001.00;;;;5100038;28;20227;-85
2022/03/17 01:59:52;;;;;;;24.40;19.10;;;10.00;68.60;10.10;97011.00;;;;5100676;28;20203;-84
2022/03/17 02:02:20;;;;;;;22.03;17.57;;;9.90;67.80;10.10;97000.00;;;;5100360;28;20286;-85
2022/03/17 02:04:48;;;;;;;24.07;19.00;;;9.90;67.80;10.10;97001.00;;;;5100357;28;20245;-85
2022/03/17 02:07:17;;;;;;;23.47;18.63;;;9.90;67.80;10.10;97001.00;;;;5101699;28;20195;-85
2022/03/17 02:09:45;;;;;;;22.83;18.93;;;9.90;67.90;10.10;97003.00;;;;5101413;28;20195;-84
2022/03/17 02:15:04;;;;;;;23.83;19.13;;;10.00;67.90;10.10;96978.00;;;;5100687;28;20237;-85
2022/03/17 02:17:35;;;;;;;23.50;18.97;;;9.90;67.80;10.10;96983.00;;;;5100301;28;20227;-85
2022/03/17 02:20:05;;;;;;;22.43;18.57;;;10.00;67.90;10.10;96978.00;;;;5081176;28;20398;-84
2022/03/17 02:22:40;;;;;;;21.93;18.30;;;10.00;67.90;10.10;96977.00;;;;5079747;28;20196;-84
2022/03/17 02:27:54;;;;;;;23.77;18.37;;;9.90;68.00;10.10;96988.00;;;;5080165;28;20259;-85
2022/03/17 02:30:23;;;;;;;23.53;19.00;;;10.00;68.00;10.10;96978.00;;;;5080216;28;20223;-85
2022/03/17 02:32:59;;;;;;;23.53;19.30;;;9.90;68.00;10.10;96979.00;;;;5079897;28;20210;-83
2022/03/17 02:35:26;;;;;;;22.70;18.70;;;9.90;68.00;10.10;96969.00;;;;5079869;28;20224;-85
2022/03/17 02:37:54;;;;;;;25.53;20.37;;;10.10;68.10;10.10;96975.00;;;;5079752;28;20307;-84
2022/03/17 02:40:22;;;;;;;22.50;18.57;;;9.90;68.00;10.10;96960.00;;;;5079384;28;20210;-85
2022/03/17 02:42:50;;;;;;;23.17;18.57;;;9.90;68.10;10.10;96969.00;;;;5079880;28;20200;-85
2022/03/17 02:45:17;;;;;;;22.97;18.13;;;10.00;68.20;10.10;96969.00;;;;5079515;28;20231;-84
2022/03/17 02:47:45;;;;;;;23.83;19.43;;;10.00;68.20;10.10;96974.00;;;;5081759;28;20214;-83
2022/03/17 02:50:12;;;;;;;23.90;18.60;;;10.00;68.20;10.10;96981.00;;;;5100640;28;20222;-85
2022/03/17 02:52:40;;;;;;;23.70;19.60;;;10.00;68.20;10.10;96982.00;;;;5100422;28;20678;-84
2022/03/17 02:55:10;;;;;;;26.83;20.07;;;10.00;68.20;10.10;96968.00;;;;5100174;28;20301;-84
2022/03/17 02:57:39;;;;;;;23.63;19.30;;;10.00;68.30;10.10;96966.00;;;;5100244;28;20219;-84
2022/03/17 03:00:09;;;;;;;24.83;19.70;;;10.00;68.40;10.10;96969.00;;;;5099981;28;20195;-85
2022/03/17 03:02:38;;;;;;;24.30;19.53;;;10.00;68.40;10.20;96973.00;;;;5100028;28;20690;-85
2022/03/17 03:05:06;;;;;;;25.03;19.93;;;10.00;68.40;10.20;96970.00;;;;5102730;28;20223;-85
2022/03/17 03:07:34;;;;;;;25.53;19.20;;;10.00;68.40;10.20;96974.00;;;;5104667;28;20552;-85
2022/03/17 03:10:02;;;;;;;24.90;19.57;;;10.00;68.40;10.20;96968.00;;;;5104199;28;20217;-85
2022/03/17 03:12:29;;;;;;;24.03;19.10;;;10.00;68.50;10.20;96972.00;;;;5104122;28;20652;-85
2022/03/17 03:14:57;;;;;;;25.50;19.90;;;10.00;68.50;10.20;96973.00;;;;5103564;28;20222;-85
2022/03/17 03:17:25;;;;;;;24.47;19.33;;;10.00;68.50;10.20;96972.00;;;;5103957;28;20225;-84
2022/03/17 03:19:53;;;;;;;25.07;19.70;;;10.00;68.50;10.20;96974.00;;;;5103170;28;20200;-84
2022/03/17 03:22:20;;;;;;;23.57;19.20;;;10.00;68.40;10.20;96978.00;;;;5103936;28;20198;-85
2022/03/17 03:24:47;;;;;;;22.23;18.63;;;10.10;68.50;10.20;96975.00;;;;5096515;28;20223;-85
2022/03/17 03:27:15;;;;;;;24.83;19.33;;;10.00;68.40;10.20;96973.00;;;;5095161;28;20244;-85
2022/03/17 03:29:42;;;;;;;25.03;19.30;;;10.10;68.50;10.20;96972.00;;;;5094967;28;20672;-87
2022/03/17 03:32:11;;;;;;;23.63;18.70;;;10.00;68.40;10.20;96970.00;;;;5094546;28;20282;-86
2022/03/17 03:34:38;;;;;;;24.20;19.37;;;10.00;68.60;10.20;96984.00;;;;5094445;28;20223;-88
2022/03/17 03:37:23;;;;;;;25.27;19.93;;;10.00;68.50;10.20;96972.00;;;;5094759;28;20223;-86
2022/03/17 03:39:51;;;;;;;23.07;18.93;;;10.00;68.50;10.20;96985.00;;;;5094435;28;20207;-86
2022/03/17 03:42:19;;;;;;;23.47;18.33;;;10.00;68.40;10.20;96983.00;;;;5094502;28;20200;-87
2022/03/17 03:44:47;;;;;;;26.30;19.93;;;10.00;69.10;10.20;96980.00;;;;5094289;28;20247;-89
2022/03/17 03:47:16;;;;;;;23.67;19.23;;;10.00;68.40;10.20;96977.00;;;;5094191;28;20288;-86
2022/03/17 03:49:43;;;;;;;24.73;19.83;;;10.00;68.40;10.20;96983.00;;;;5094096;28;20285;-86
2022/03/17 03:52:13;;;;;;;26.20;20.67;;;10.00;68.50;10.20;96996.00;;;;5094168;28;20290;-88
2022/03/17 03:54:42;;;;;;;25.47;20.03;;;10.00;68.50;10.10;97001.00;;;;5094244;28;20666;-86
2022/03/17 03:57:10;;;;;;;24.13;18.77;;;10.00;68.50;10.10;96992.00;;;;5094204;28;20725;-86
2022/03/17 03:59:38;;;;;;;24.13;18.90;;;10.00;68.40;10.10;97000.00;;;;5094044;28;20294;-86
2022/03/17 04:02:08;;;;;;;23.33;18.97;;;9.90;68.40;10.10;96983.00;;;;5094142;28;20742;-86
2022/03/17 04:04:39;;;;;;;24.07;19.13;;;9.90;68.50;10.10;97003.00;;;;5093407;28;20265;-86
2022/03/17 04:07:09;;;;;;;25.93;19.83;;;9.90;68.50;10.10;97007.00;;;;5093876;28;20233;-86
2022/03/17 04:09:39;;;;;;;26.07;19.70;;;9.90;68.50;10.10;97015.00;;;;5094144;28;20202;-86
2022/03/17 04:12:09;;;;;;;25.83;19.90;;;9.90;68.50;10.10;97020.00;;;;5094214;28;20179;-86
2022/03/17 04:14:37;;;;;;;25.13;20.27;;;9.90;68.50;10.10;97010.00;;;;5093770;28;20223;-86
2022/03/17 04:17:05;;;;;;;24.10;19.33;;;9.90;68.50;10.10;97004.00;;;;5092909;28;20203;-86
2022/03/17 04:19:33;;;;;;;23.73;19.27;;;9.90;68.50;10.00;97012.00;;;;5093727;28;20191;-86
2022/03/17 04:22:02;;;;;;;24.73;19.90;;;9.80;68.50;10.00;97015.00;;;;5094091;28;20278;-86
2022/03/17 04:24:29;;;;;;;27.03;19.90;;;9.80;68.60;10.00;97016.00;;;;5093692;28;20216;-88
2022/03/17 04:26:56;;;;;;;24.67;19.43;;;9.80;68.60;10.00;97015.00;;;;5093576;28;20209;-87
2022/03/17 04:29:23;;;;;;;24.67;19.60;;;9.80;69.40;10.00;97018.00;;;;5094159;28;20286;-86
2022/03/17 04:31:50;;;;;;;24.07;19.10;;;9.80;68.60;10.00;97017.00;;;;5094504;28;20199;-86
2022/03/17 04:34:18;;;;;;;24.00;19.10;;;9.70;68.50;10.00;97016.00;;;;5093731;28;20242;-89
2022/03/17 04:36:45;;;;;;;24.53;19.87;;;9.70;68.50;9.90;97029.00;;;;5094209;28;20221;-86
2022/03/17 04:39:14;;;;;;;25.50;19.97;;;9.70;68.60;9.90;97027.00;;;;5093435;28;20222;-86
2022/03/17 04:41:41;;;;;;;24.20;19.40;;;9.70;68.60;9.90;97029.00;;;;5093808;28;20268;-86
2022/03/17 04:44:09;;;;;;;26.43;20.07;;;9.70;68.70;9.90;97024.00;;;;5093532;28;20270;-87
2022/03/17 04:46:36;;;;;;;25.27;20.63;;;9.60;68.60;9.90;97024.00;;;;5093685;28;20198;-87
2022/03/17 04:49:04;;;;;;;26.13;20.30;;;9.60;68.70;9.80;97026.00;;;;5094048;28;20231;-86
2022/03/17 04:51:32;;;;;;;26.23;20.67;;;9.60;68.80;9.80;97041.00;;;;5093238;28;20274;-86
2022/03/17 04:54:00;;;;;;;24.67;20.07;;;9.60;68.80;9.80;97049.00;;;;5092931;28;20566;-86
2022/03/17 04:56:28;;;;;;;26.10;20.77;;;9.60;68.90;9.80;97051.00;;;;5093006;28;20203;-87
2022/03/17 04:58:56;;;;;;;26.40;20.27;;;9.60;69.10;9.80;97051.00;;;;5092679;28;20303;-86
2022/03/17 05:01:24;;;;;;;26.47;19.67;;;9.60;69.10;9.70;97040.00;;;;5092863;28;20278;-86
2022/03/17 05:03:51;;;;;;;28.33;20.67;;;9.60;69.10;9.70;97039.00;;;;5092841;28;20223;-86
2022/03/17 05:06:19;;;;;;;26.73;20.63;;;9.50;69.10;9.70;97045.00;;;;5092740;28;20667;-89
2022/03/17 05:08:47;;;;;;;24.20;19.63;;;9.50;69.10;9.70;97053.00;;;;5093275;28;20667;-87
2022/03/17 05:11:14;;;;;;;25.33;19.63;;;9.50;69.20;9.70;97052.00;;;;5092969;28;20286;-86
2022/03/17 05:13:43;;;;;;;27.17;20.93;;;9.50;69.10;9.70;97049.00;;;;5092710;28;20215;-87
2022/03/17 05:16:13;;;;;;;27.10;19.90;;;9.40;69.10;9.60;97046.00;;;;5092888;28;20207;-89
2022/03/17 05:18:40;;;;;;;27.13;20.73;;;9.40;69.10;9.60;97058.00;;;;5093001;28;20419;-86
2022/03/17 05:21:07;;;;;;;25.87;20.70;;;9.30;69.20;9.60;97061.00;;;;5093164;28;20254;-86
2022/03/17 05:23:35;;;;;;;27.20;20.67;;;9.40;70.00;9.60;97061.00;;;;5092909;28;20261;-89
2022/03/17 05:26:02;;;;;;;28.70;20.10;;;9.40;69.40;9.60;97054.00;;;;5093443;28;20624;-86
2022/03/17 05:28:30;;;;;;;27.83;21.30;;;9.40;70.10;9.60;97047.00;;;;5092188;28;20199;-86
2022/03/17 05:30:59;;;;;;;24.80;20.30;;;9.40;69.40;9.60;97060.00;;;;5092893;28;20253;-86
2022/03/17 05:33:26;;;;;;;25.73;19.70;;;9.30;69.40;9.50;97049.00;;;;5093077;28;20294;-86
2022/03/17 05:35:53;;;;;;;27.47;20.57;;;9.30;69.50;9.50;97051.00;;;;5093143;28;20195;-88
2022/03/17 05:38:20;;;;;;;26.60;21.13;;;9.30;69.60;9.50;97050.00;;;;5114502;22;20222;-89
2022/03/17 05:40:48;;;;;;;28.03;20.10;;;9.30;69.60;9.50;97061.00;;;;5026875;28;20216;-90
2022/03/17 05:43:15;;;;;;;27.77;21.53;;;9.30;69.80;9.50;97065.00;;;;5033210;28;20289;-90
2022/03/17 05:45:43;;;;;;;25.63;19.63;;;9.30;69.80;9.50;97064.00;;;;5034665;28;20201;-90
2022/03/17 05:48:11;;;;;;;26.37;20.13;;;9.30;70.00;9.50;97063.00;;;;5033878;28;20201;-90
2022/03/17 05:50:41;;;;;;;27.37;21.17;;;9.30;70.00;9.50;97075.00;;;;5013448;28;20284;-90
2022/03/17 05:53:10;;;;;;;26.23;21.37;;;9.30;70.10;9.50;97087.00;;;;5024161;28;20233;-90
2022/03/17 05:55:38;;;;;;;27.03;21.30;;;9.40;70.40;9.60;97090.00;;;;5015027;28;20674;-90
2022/03/17 05:58:06;;;;;;;26.03;20.30;;;9.30;70.40;9.60;97076.00;;;;5012756;28;20240;-90
2022/03/17 06:00:35;;;;;;;25.43;20.73;;;9.30;70.40;9.60;97077.00;;;;5012915;28;20349;-90
2022/03/17 06:03:05;;;;;;;28.73;21.23;;;9.30;70.50;9.60;97082.00;;;;5012981;28;20550;-90
2022/03/17 06:05:33;;;;;;;27.43;20.90;;;9.30;70.60;9.70;97083.00;;;;5012983;28;20304;-90
2022/03/17 06:08:04;;;;;;;28.03;21.10;;;9.30;70.70;9.70;97077.00;;;;5012984;28;20292;-90
2022/03/17 06:10:37;;;;;;;31.77;21.80;;;9.40;70.80;9.70;97073.00;;;;5012910;28;20311;-90
2022/03/17 06:13:10;;;;;;;28.13;21.67;;;9.40;70.80;9.70;97075.00;;;;5013034;28;20660;-90
2022/03/17 06:15:37;;;;;;;29.60;20.97;;;9.90;71.10;9.80;97089.00;;;;5012731;28;20285;-90
2022/03/17 06:18:09;;;;;;;32.00;22.40;;;9.40;70.70;9.80;97079.00;;;;5012705;28;20221;-91
2022/03/17 06:20:39;;;;;;;30.60;21.83;;;9.50;70.80;9.80;97086.00;;;;5013129;28;20659;-90
2022/03/17 06:23:08;;;;;;;30.17;22.17;;;9.50;70.80;9.90;97094.00;;;;5012883;28;20205;-90
2022/03/17 06:25:38;;;;;;;31.17;23.10;;;9.50;70.80;9.90;97080.00;;;;5012974;28;20268;-90
2022/03/17 06:28:06;;;;;;;27.57;21.30;;;9.60;70.90;9.90;97092.00;;;;5013056;28;20210;-90
2022/03/17 06:30:35;;;;;;;30.53;21.63;;;9.60;71.00;10.00;97100.00;;;;5012774;28;20257;-90
2022/03/17 06:33:04;;;;;;;30.23;21.40;;;9.60;71.10;10.10;97091.00;;;;5013108;28;20205;-90
2022/03/17 06:35:31;;;;;;;26.93;20.57;;;9.70;71.30;10.10;97088.00;;;;5012851;28;20312;-90
2022/03/17 06:38:02;;;;;;;28.03;22.30;;;9.70;71.40;10.20;97097.00;;;;5012327;28;20204;-90
2022/03/17 06:40:31;;;;;;;28.93;21.63;;;9.80;71.30;10.20;97096.00;;;;5015689;28;20229;-90
2022/03/17 06:42:59;;;;;;;27.97;21.93;;;9.80;71.30;10.30;97083.00;;;;5016518;28;20664;-90
2022/03/17 06:45:27;;;;;;;28.90;21.90;;;9.90;71.40;10.40;97098.00;;;;5016319;28;20684;-90
2022/03/17 06:47:54;;;;;;;29.53;21.67;;;10.00;71.40;10.50;97093.00;;;;5017380;28;20202;-90
2022/03/17 06:50:22;;;;;;;28.97;22.43;;;10.00;71.40;10.50;97111.00;;;;5016264;28;20304;-90
2022/03/17 06:52:50;;;;;;;28.40;21.90;;;10.10;71.50;10.60;97119.00;;;;5016739;28;20201;-91
2022/03/17 06:55:20;;;;;;;28.67;22.57;;;10.20;71.60;10.70;97121.00;;;;5016544;28;20240;-90
2022/03/17 06:57:47;;;;;;;27.90;21.57;;;10.20;71.50;10.80;97119.00;;;;5016491;28;20337;-90
2022/03/17 07:00:18;;;;;;;29.07;22.83;;;10.30;71.50;10.90;97123.00;;;;5016848;28;20217;-90
2022/03/17 07:02:45;;;;;;;28.53;22.53;;;10.40;71.50;11.00;97128.00;;;;5017977;28;20201;-90
2022/03/17 07:05:12;;;;;;;27.13;21.43;;;10.50;71.60;11.10;97124.00;;;;5018425;28;20205;-90
2022/03/17 07:07:40;;;;;;;30.50;22.43;;;10.60;71.60;11.20;97140.00;;;;5017109;28;20668;-90
2022/03/17 07:10:09;;;;;;;27.57;21.87;;;10.60;71.40;11.30;97143.00;;;;5015960;28;20281;-90
2022/03/17 07:12:41;;;;;;;28.63;22.30;;;10.70;71.20;11.30;97138.00;;;;5015838;28;20202;-90
2022/03/17 07:15:10;;;;;;;28.37;22.80;;;10.80;71.00;11.40;97137.00;;;;5016668;28;20190;-90
2022/03/17 07:17:40;;;;;;;33.10;24.40;;;10.90;70.90;11.50;97146.00;;;;5015503;28;20210;-90
2022/03/17 07:20:09;;;;;;;27.50;22.30;;;11.00;70.90;11.60;97147.00;;;;4996025;28;20658;-90
2022/03/17 07:22:39;;;;;;;28.10;22.30;;;11.00;70.70;11.70;97136.00;;;;4996932;28;20197;-90
2022/03/17 07:25:09;;;;;;;28.47;21.60;;;11.10;70.70;11.80;97150.00;;;;4998592;28;20265;-90
2022/03/17 07:27:41;;;;;;;28.40;23.10;;;11.20;70.60;11.90;97154.00;;;;4996003;28;20242;-90
2022/03/17 07:30:10;;;;;;;27.80;21.73;;;11.50;70.70;12.00;97162.00;;;;4996050;28;20234;-90
2022/03/17 07:32:38;;;;;;;28.93;22.83;;;11.40;70.70;12.10;97172.00;;;;4996087;28;20263;-90
2022/03/17 07:35:06;;;;;;;28.10;21.70;;;11.50;70.60;12.20;97162.00;;;;4995859;28;20207;-90
2022/03/17 07:37:33;;;;;;;28.07;21.40;;;11.60;70.50;12.30;97168.00;;;;4996116;28;20206;-90
2022/03/17 07:40:00;;;;;;;33.20;22.50;;;11.70;70.50;12.40;97163.00;;;;5002689;28;20290;-90
2022/03/17 07:42:27;;;;;;;28.23;22.17;;;11.80;70.30;12.50;97178.00;;;;5002202;28;20198;-91
2022/03/17 07:44:56;;;;;;;30.57;21.90;;;11.80;70.20;12.60;97179.00;;;;4995837;28;20226;-90
2022/03/17 07:47:23;;;;;;;30.33;22.93;;;11.90;70.10;12.70;97175.00;;;;4995670;28;20298;-90
2022/03/17 07:49:50;;;;;;;27.93;22.07;;;12.00;69.90;12.80;97174.00;;;;5032438;28;20228;-91
2022/03/17 07:52:17;;;;;;;26.53;21.03;;;12.10;69.80;12.90;97175.00;;;;5031396;28;20221;-90
2022/03/17 07:54:45;;;;;;;29.47;23.10;;;12.20;69.70;13.00;97181.00;;;;5015213;28;20649;-89
2022/03/17 07:57:14;;;;;;;29.20;23.07;;;12.30;69.30;13.10;97183.00;;;;5015293;28;20214;-90
2022/03/17 07:59:41;;;;;;;27.97;22.13;;;12.40;69.10;13.10;97183.00;;;;5015181;28;20252;-91
2022/03/17 08:02:10;;;;;;;28.77;22.60;;;12.50;69.10;13.20;97187.00;;;;5014753;28;20198;-90
2022/03/17 08:04:37;;;;;;;29.13;22.67;;;12.60;69.00;13.30;97197.00;;;;5014996;28;20205;-90
2022/03/17 08:07:23;;;;;;;26.07;21.40;;;12.70;68.80;13.40;97184.00;;;;5014556;28;20205;-90
2022/03/17 08:09:50;;;;;;;25.53;21.43;;;12.80;68.30;13.50;97188.00;;;;5014496;28;20222;-91
2022/03/17 08:12:17;;;;;;;29.00;22.77;;;12.90;68.50;13.60;97198.00;;;;5014518;28;20196;-90
2022/03/17 08:14:44;;;;;;;27.77;22.30;;;12.90;68.30;13.70;97194.00;;;;5014693;28;20288;-90
2022/03/17 08:17:14;;;;;;;26.13;20.70;;;13.00;68.30;13.80;97192.00;;;;5014629;28;20679;-90
2022/03/17 08:19:41;;;;;;;27.97;21.73;;;13.10;67.70;13.90;97203.00;;;;4997184;28;20317;-90
2022/03/17 08:22:09;;;;;;;27.20;21.27;;;13.20;67.70;14.00;97185.00;;;;4995312;28;20262;-90
2022/03/17 08:24:36;;;;;;;27.57;21.03;;;13.30;67.70;14.10;97202.00;;;;4995522;28;20249;-90
2022/03/17 08:27:04;;;;;;;26.13;20.93;;;13.30;67.40;14.10;97197.00;;;;4995520;28;20241;-90
2022/03/17 08:29:31;;;;;;;27.23;21.63;;;13.40;67.40;14.20;97208.00;;;;4995490;28;20716;-90
2022/03/17 08:31:59;;;;;;;25.57;21.33;;;13.50;67.30;14.30;97208.00;;;;4995044;28;20688;-91
2022/03/17 08:34:27;;;;;;;27.70;21.97;;;13.60;67.30;14.40;97205.00;;;;4995335;28;20206;-91
2022/03/17 08:36:56;;;;;;;26.33;20.90;;;13.70;67.10;14.50;97202.00;;;;4994557;28;20692;-90
2022/03/17 08:39:23;;;;;;;26.33;20.90;;;13.80;66.80;14.60;97207.00;;;;4994785;28;20301;-91
2022/03/17 08:41:51;;;;;;;25.10;19.90;;;13.80;66.70;14.70;97217.00;;;;4995513;28;20202;-90
2022/03/17 08:44:18;;;;;;;24.17;21.03;;;13.90;66.50;14.70;97221.00;;;;4995414;28;20620;-90
2022/03/17 08:49:32;;;;;;;26.57;20.47;;;14.10;66.20;14.90;97233.00;;;;5010717;28;20288;-91
2022/03/17 08:52:01;;;;;;;22.10;19.60;;;14.10;66.00;14.90;97236.00;;;;5015021;28;20242;-91
2022/03/17 08:54:35;;;;;;;27.70;21.77;;;14.30;65.80;15.00;97242.00;;;;5014988;28;20208;-91
2022/03/17 08:57:04;;;;;;;24.07;20.57;;;14.20;64.00;15.00;97236.00;;;;5014481;28;20202;-90
2022/03/17 08:59:34;;;;;;;25.47;20.33;;;14.30;63.90;15.00;97243.00;;;;5014084;28;20225;-91
2022/03/17 09:02:04;;;;;;;25.33;21.23;;;14.30;63.50;15.00;97233.00;;;;5014511;28;20182;-91
2022/03/17 09:04:35;;;;;;;25.37;19.77;;;14.30;63.80;15.00;97244.00;;;;5014575;28;20241;-91
2022/03/17 09:07:03;;;;;;;23.57;20.40;;;14.40;63.80;15.10;97237.00;;;;5014384;28;20225;-90
2022/03/17 09:09:32;;;;;;;24.77;20.43;;;14.40;63.90;15.10;97249.00;;;;5015168;28;20237;-90
2022/03/17 09:12:00;;;;;;;26.20;19.90;;;14.50;64.00;15.20;97256.00;;;;5015038;28;20748;-90
2022/03/17 09:14:28;;;;;;;24.80;19.63;;;14.50;64.10;15.30;97257.00;;;;5015178;28;20226;-90
2022/03/17 09:16:55;;;;;;;24.37;19.97;;;14.60;64.00;15.40;97258.00;;;;5015060;28;20231;-90
2022/03/17 09:19:23;;;;;;;23.67;19.13;;;14.70;63.30;15.40;97265.00;;;;5014421;28;20654;-90
2022/03/17 09:21:51;;;;;;;22.47;17.97;;;14.70;63.50;15.50;97262.00;;;;5014794;28;20249;-90
2022/03/17 09:24:19;;;;;;;23.13;19.03;;;14.80;63.40;15.60;97268.00;;;;5014437;28;20228;-90
2022/03/17 09:26:46;;;;;;;23.93;19.47;;;14.80;63.70;15.60;97276.00;;;;5014108;28;20198;-90
2022/03/17 09:29:15;;;;;;;21.70;18.80;;;14.90;63.20;15.70;97275.00;;;;5024356;28;20234;-91
2022/03/17 09:31:43;;;;;;;24.07;20.00;;;14.90;62.40;15.70;97270.00;;;;5014931;28;20206;-90
2022/03/17 09:34:12;;;;;;;24.57;19.43;;;15.00;61.20;15.60;97269.00;;;;5022568;28;20618;-91
2022/03/17 09:36:43;;;;;;;23.20;19.40;;;15.00;61.40;15.60;97259.00;;;;5021971;28;20202;-90
2022/03/17 09:42:01;;;;;;;24.73;19.47;;;14.90;61.30;15.60;97266.00;;;;5013588;28;20213;-89
2022/03/17 09:44:29;;;;;;;22.43;18.63;;;14.90;61.40;15.50;97259.00;;;;5015226;28;20205;-89
2022/03/17 09:46:59;;;;;;;23.97;19.10;;;14.90;61.50;15.50;97270.00;;;;5013332;28;20758;-89
2022/03/17 09:49:27;;;;;;;24.90;20.27;;;14.90;61.60;15.50;97272.00;;;;5013179;28;20304;-90
2022/03/17 09:51:58;;;;;;;21.77;18.20;;;14.80;61.40;15.50;97276.00;;;;5013509;28;20288;-88
2022/03/17 09:54:33;;;;;;;21.97;18.83;;;14.80;61.10;15.50;97257.00;;;;5013532;28;20233;-89
2022/03/17 09:57:01;;;;;;;20.93;18.10;;;14.80;61.00;15.50;97271.00;;;;5023738;28;20210;-90
2022/03/17 09:59:28;;;;;;;22.97;18.27;;;14.80;61.50;15.50;97272.00;;;;5012852;28;20257;-90
2022/03/17 10:01:57;;;;;;;22.00;17.37;;;14.80;61.70;15.60;97279.00;;;;5012976;28;20206;-90
2022/03/17 10:04:25;;;;;;;21.20;17.87;;;14.80;61.70;15.60;97286.00;;;;5013041;28;20232;-90
2022/03/17 10:06:53;;;;;;;21.90;17.83;;;14.80;61.80;15.60;97290.00;;;;5012908;28;20316;-90
2022/03/17 10:09:20;;;;;;;22.90;18.47;;;15.00;61.90;15.60;97284.00;;;;5012774;28;20253;-90
2022/03/17 10:12:02;;;;;;;21.93;18.90;;;14.90;61.40;15.60;97274.00;;;;5012898;28;20213;-90
2022/03/17 10:14:40;;;;;;;23.20;18.57;;;14.90;60.70;15.60;97283.00;;;;5014607;28;20186;-90
2022/03/17 10:17:29;;;;;;;21.97;18.33;;;14.90;61.00;15.60;97281.00;;;;5016600;28;20582;-90
2022/03/17 10:20:17;;;;;;;20.57;17.57;;;15.00;61.00;15.70;97284.00;;;;5016666;28;20225;-90
2022/03/17 10:22:47;;;;;;;20.63;17.37;;;14.90;60.50;15.70;97289.00;;;;5016914;28;20197;-90
2022/03/17 10:25:17;;;;;;;21.33;17.63;;;14.90;61.20;15.70;97286.00;;;;5017038;28;20194;-90
2022/03/17 10:27:49;;;;;;;21.13;18.23;;;15.00;61.50;15.80;97295.00;;;;5017044;28;20198;-90
2022/03/17 10:30:23;;;;;;;20.43;17.33;;;15.00;61.60;15.80;97290.00;;;;5019728;28;20778;-90
2022/03/17 10:32:57;;;;;;;21.83;17.90;;;15.00;61.30;15.80;97296.00;;;;5017848;28;20258;-90
2022/03/17 10:35:26;;;;;;;22.03;18.53;;;15.10;60.60;15.80;97296.00;;;;5019462;28;20246;-88
2022/03/17 10:37:54;;;;;;;20.57;17.50;;;15.00;60.70;15.80;97286.00;;;;5019704;28;20669;-90
2022/03/17 10:40:31;;;;;;;21.03;17.73;;;15.00;60.70;15.80;97291.00;;;;5017077;28;20600;-90
2022/03/17 10:43:23;;;;;;;20.17;17.47;;;15.10;60.50;15.80;97291.00;;;;5019161;28;20678;-88
2022/03/17 10:46:05;;;;;;;21.30;16.73;;;15.10;60.70;15.90;97294.00;;;;5019342;28;20264;-88
2022/03/17 10:48:33;;;;;;;21.90;17.40;;;15.10;60.40;15.90;97295.00;;;;5018947;28;20795;-89
2022/03/17 10:51:00;;;;;;;23.23;17.77;;;15.10;60.80;15.90;97289.00;;;;5017118;28;20289;-89
2022/03/17 10:53:29;;;;;;;21.00;17.00;;;15.10;60.60;15.90;97296.00;;;;5016348;28;20290;-89
2022/03/17 10:56:12;;;;;;;22.13;17.30;;;15.10;60.60;15.90;97297.00;;;;5016179;28;20594;-89
2022/03/17 10:58:49;;;;;;;21.93;17.93;;;15.20;60.00;15.90;97296.00;;;;5016526;28;20661;-89
2022/03/17 11:01:17;;;;;;;21.43;17.40;;;15.20;60.20;15.90;97301.00;;;;5016484;28;20241;-89
2022/03/17 11:03:44;;;;;;;21.07;16.90;;;15.20;60.30;16.00;97298.00;;;;5016447;28;20208;-89
2022/03/17 11:06:11;;;;;;;20.47;16.97;;;15.20;60.40;16.00;97304.00;;;;5015849;28;20278;-89